Time;durP1;ratioP1;P1;durP2;ratioP2;P2;SDS_P1;SDS_P2;PMS_P1;PMS_P2;Temp;Humidity;BMP_temperature;BMP_pressure;BME280_temperature;BME280_humidity;BME280_pressure;Samples;Min_cycle;Max_cycle;Signal;HPM_P1;HPM_P2
2021/12/05 00:24:01;;;;;;;3.50;1.90;;;;;;;;;;5051076;28;20141;-70
2021/12/05 00:26:29;;;;;;;2.70;1.80;;;;;;;;;;5035940;28;20136;-72
2021/12/05 00:29:09;;;;;;;2.85;2.10;;;;;;;;;;5036600;28;20047;-71
2021/12/05 01:16:33;;;;;;;2.95;1.48;;;;;;;;;;5052067;28;20127;-70
2021/12/05 01:19:00;;;;;;;2.05;1.52;;;;;;;;;;5054964;28;20052;-72
2021/12/05 01:21:27;;;;;;;3.50;1.65;;;;;;;;;;5054823;28;20059;-71
2021/12/05 01:26:31;;;;;;;2.33;1.40;;;;;;;;;;5050935;28;20069;-74
2021/12/05 01:31:42;;;;;;;2.67;1.90;;;;;;;;;;5043451;28;20155;-69
2021/12/05 01:48:01;;;;;;;5.60;1.50;;;;;;;;;;4966078;28;20046;-69
2021/12/05 02:37:00;;;;;;;3.42;1.30;;;;;;;;;;5046130;28;20049;-69
2021/12/05 02:41:54;;;;;;;2.22;1.30;;;;;;;;;;5040589;28;20354;-69
2021/12/05 02:44:24;;;;;;;2.38;1.50;;;;;;;;;;5046189;28;20051;-70
2021/12/05 02:47:03;;;;;;;2.58;1.60;;;;;;;;;;5050099;28;20049;-69
2021/12/05 02:49:32;;;;;;;1.98;1.40;;;;;;;;;;5048013;28;20082;-69
2021/12/05 02:52:07;;;;;;;3.03;1.42;;;;;;;;;;5022354;28;20060;-69
2021/12/05 02:54:44;;;;;;;1.98;1.52;;;;;;;;;;5057455;28;20059;-68
2021/12/05 02:57:11;;;;;;;3.35;1.35;;;;;;;;;;5050252;28;20052;-69
2021/12/05 03:02:13;;;;;;;1.65;1.35;;;;;;;;;;5040857;28;20215;-68
2021/12/05 03:04:45;;;;;;;2.95;1.30;;;;;;;;;;5049581;28;20056;-70
2021/12/05 03:07:13;;;;;;;2.47;1.15;;;;;;;;;;5049022;28;20051;-67
2021/12/05 03:09:42;;;;;;;3.22;1.33;;;;;;;;;;5049130;28;20117;-68
2021/12/05 03:12:16;;;;;;;1.33;1.20;;;;;;;;;;5042514;28;20169;-67
2021/12/05 03:14:43;;;;;;;3.67;1.60;;;;;;;;;;5046909;28;20456;-68
2021/12/05 03:17:09;;;;;;;2.15;1.70;;;;;;;;;;5049547;28;20052;-71
2021/12/05 03:19:36;;;;;;;2.30;1.50;;;;;;;;;;5051274;28;20054;-68
2021/12/05 03:22:02;;;;;;;2.35;1.60;;;;;;;;;;5041603;28;20679;-68
2021/12/05 03:24:29;;;;;;;2.05;1.50;;;;;;;;;;5054383;28;20063;-68
2021/12/05 03:26:55;;;;;;;1.85;1.40;;;;;;;;;;5043245;28;20643;-69
2021/12/05 03:29:22;;;;;;;3.22;1.70;;;;;;;;;;5048138;28;20056;-67
2021/12/05 03:31:51;;;;;;;1.98;1.58;;;;;;;;;;5043537;28;20063;-70
2021/12/05 03:34:19;;;;;;;4.03;1.80;;;;;;;;;;5049650;28;20082;-69
2021/12/05 03:36:49;;;;;;;2.05;1.52;;;;;;;;;;5044231;28;20052;-68
2021/12/05 03:39:16;;;;;;;2.00;1.60;;;;;;;;;;5042131;28;20464;-69
2021/12/05 03:41:44;;;;;;;4.03;1.60;;;;;;;;;;5045624;28;20055;-70
2021/12/05 03:44:14;;;;;;;2.08;1.40;;;;;;;;;;5043168;28;20106;-69
2021/12/05 03:46:42;;;;;;;2.85;1.58;;;;;;;;;;5040888;28;20446;-68
2021/12/05 03:49:10;;;;;;;2.85;1.50;;;;;;;;;;5052244;28;20135;-70
2021/12/05 03:51:40;;;;;;;3.08;1.38;;;;;;;;;;5046666;28;21437;-68
2021/12/05 03:54:08;;;;;;;1.50;1.17;;;;;;;;;;5042136;28;20146;-69
2021/12/05 03:56:36;;;;;;;2.15;1.30;;;;;;;;;;5051035;28;20056;-68
2021/12/05 03:59:04;;;;;;;2.05;1.58;;;;;;;;;;5046990;28;20108;-68
2021/12/05 04:01:30;;;;;;;2.40;1.20;;;;;;;;;;5038060;28;20394;-69
2021/12/05 04:03:57;;;;;;;4.50;1.30;;;;;;;;;;5040676;28;20055;-68
2021/12/05 04:06:25;;;;;;;2.72;1.30;;;;;;;;;;5049096;28;21743;-70
2021/12/05 04:08:53;;;;;;;6.18;1.40;;;;;;;;;;5046822;28;20721;-68
2021/12/05 04:11:28;;;;;;;1.90;1.33;;;;;;;;;;5045747;28;20032;-70
2021/12/05 04:13:55;;;;;;;1.92;1.40;;;;;;;;;;5027818;28;20091;-67
2021/12/05 04:16:21;;;;;;;1.92;1.40;;;;;;;;;;5050295;28;20477;-69
2021/12/05 04:18:48;;;;;;;4.38;1.40;;;;;;;;;;5044183;28;20064;-67
2021/12/05 04:21:16;;;;;;;2.63;1.40;;;;;;;;;;5048580;28;20057;-67
2021/12/05 04:23:45;;;;;;;3.53;1.52;;;;;;;;;;5040683;28;21137;-69
2021/12/05 04:26:11;;;;;;;1.85;1.30;;;;;;;;;;5045192;28;20489;-68
2021/12/05 04:28:38;;;;;;;2.08;1.60;;;;;;;;;;5046175;28;20528;-69
2021/12/05 04:31:08;;;;;;;3.13;1.70;;;;;;;;;;5015113;28;20060;-69
2021/12/05 04:33:36;;;;;;;1.70;1.33;;;;;;;;;;5022483;28;20060;-68
2021/12/05 04:36:03;;;;;;;1.98;1.67;;;;;;;;;;5041581;28;20053;-69
2021/12/05 04:38:29;;;;;;;3.75;1.92;;;;;;;;;;5049950;28;20052;-70
2021/12/05 04:40:55;;;;;;;6.05;1.55;;;;;;;;;;5047426;28;21316;-68
2021/12/05 04:43:21;;;;;;;3.42;1.50;;;;;;;;;;5040965;28;20393;-68
2021/12/05 04:45:48;;;;;;;3.97;1.75;;;;;;;;;;5042079;28;20041;-67
2021/12/05 04:48:14;;;;;;;3.03;1.58;;;;;;;;;;5049447;28;20040;-70
2021/12/05 04:50:41;;;;;;;3.67;1.40;;;;;;;;;;5057669;28;20146;-68
2021/12/05 04:53:08;;;;;;;3.55;1.30;;;;;;;;;;5042597;28;20056;-68
2021/12/05 04:55:35;;;;;;;1.58;1.33;;;;;;;;;;5052096;28;20150;-69
2021/12/05 04:58:04;;;;;;;2.97;1.20;;;;;;;;;;5052283;28;20094;-68
2021/12/05 05:00:35;;;;;;;2.50;1.30;;;;;;;;;;5031268;28;20567;-68
2021/12/05 05:03:03;;;;;;;3.35;1.30;;;;;;;;;;5039212;28;20056;-68
2021/12/05 05:05:31;;;;;;;2.45;1.20;;;;;;;;;;5054105;28;20049;-68
2021/12/05 05:07:58;;;;;;;2.28;1.13;;;;;;;;;;5044283;28;21054;-69
2021/12/05 05:10:28;;;;;;;2.45;1.17;;;;;;;;;;5050114;28;20082;-68
2021/12/05 05:12:55;;;;;;;2.20;1.20;;;;;;;;;;5047862;28;20040;-69
2021/12/05 05:15:25;;;;;;;2.40;1.35;;;;;;;;;;5049004;28;20591;-70
2021/12/05 05:17:54;;;;;;;3.53;1.10;;;;;;;;;;5049924;28;20442;-69
2021/12/05 05:20:27;;;;;;;3.15;1.10;;;;;;;;;;5047899;28;20048;-72
2021/12/05 05:23:19;;;;;;;2.20;1.13;;;;;;;;;;5028136;28;20045;-69
2021/12/05 05:29:30;;;;;;;;;;;;;;;;;;5046647;28;20355;-69
2021/12/05 05:50:18;;;;;;;;;;;;;;;;;;5051316;28;20044;-69
2021/12/05 05:52:45;;;;;;;2.55;1.30;;;;;;;;;;5043857;28;20555;-69
2021/12/05 05:55:12;;;;;;;2.15;1.15;;;;;;;;;;5049943;28;20056;-69
2021/12/05 05:57:45;;;;;;;4.15;1.10;;;;;;;;;;5049543;28;20699;-68
2021/12/05 06:00:19;;;;;;;2.85;1.00;;;;;;;;;;5038499;28;20049;-70
2021/12/05 06:05:33;;;;;;;4.00;1.30;;;;;;;;;;5048484;28;20101;-69
2021/12/05 06:08:00;;;;;;;1.85;1.05;;;;;;;;;;5050196;28;20745;-70
2021/12/05 06:10:29;;;;;;;2.55;1.13;;;;;;;;;;5048100;28;20864;-68
2021/12/05 06:12:55;;;;;;;3.30;1.45;;;;;;;;;;5035593;28;20064;-69
2021/12/05 06:15:24;;;;;;;3.75;1.45;;;;;;;;;;5044248;28;20235;-67
2021/12/05 06:17:52;;;;;;;4.53;1.52;;;;;;;;;;5029174;28;20044;-69
2021/12/05 06:20:23;;;;;;;1.92;1.00;;;;;;;;;;5054935;28;20128;-70
2021/12/05 06:22:50;;;;;;;2.55;1.05;;;;;;;;;;5040993;28;20061;-70
2021/12/05 06:25:21;;;;;;;3.63;1.30;;;;;;;;;;5046458;28;20156;-68
2021/12/05 06:27:48;;;;;;;5.82;1.23;;;;;;;;;;5027943;28;20052;-69
2021/12/05 06:30:31;;;;;;;3.53;1.02;;;;;;;;;;5043077;28;20057;-69
2021/12/05 06:39:18;;;;;;;3.25;1.20;;;;;;;;;;5046178;28;20442;-69
2021/12/05 06:41:37;;;;;;;4.10;1.20;;;;;;;;;;5050099;28;20115;-70
2021/12/05 06:46:49;;;;;;;;;;;;;;;;;;5051029;28;20781;-71
2021/12/05 06:49:15;;;;;;;2.13;1.15;;;;;;;;;;5049850;28;20404;-68
2021/12/05 06:51:41;;;;;;;3.72;1.13;;;;;;;;;;5045851;28;20052;-69
2021/12/05 06:54:09;;;;;;;5.57;1.50;;;;;;;;;;5050121;28;20699;-69
2021/12/05 06:56:35;;;;;;;2.20;0.82;;;;;;;;;;5042769;28;20186;-70
2021/12/05 06:59:01;;;;;;;3.47;1.40;;;;;;;;;;5050025;28;20052;-70
2021/12/05 07:01:27;;;;;;;2.72;1.10;;;;;;;;;;5040001;28;20053;-69
2021/12/05 07:03:53;;;;;;;1.73;1.05;;;;;;;;;;5044453;28;20101;-67
2021/12/05 07:06:27;;;;;;;1.90;1.25;;;;;;;;;;5048772;28;21114;-70
2021/12/05 07:08:59;;;;;;;4.68;1.17;;;;;;;;;;5048906;28;20052;-68
2021/12/05 07:21:39;;;;;;;2.65;1.13;;;;;;;;;;5049699;28;20401;-69
2021/12/05 07:24:28;;;;;;;1.80;1.00;;;;;;;;;;5049713;28;20052;-71
2021/12/05 07:27:11;;;;;;;2.45;1.10;;;;;;;;;;5045423;28;20048;-69
2021/12/05 07:40:40;;;;;;;2.63;1.25;;;;;;;;;;5053167;28;20128;-71
2021/12/05 07:43:10;;;;;;;5.05;1.40;;;;;;;;;;5042126;28;20083;-70
2021/12/05 07:45:46;;;;;;;3.58;1.15;;;;;;;;;;5033486;28;20056;-70
2021/12/05 07:48:18;;;;;;;4.20;1.30;;;;;;;;;;5045034;28;20048;-71
2021/12/05 07:51:38;;;;;;;2.80;1.20;;;;;;;;;;5045737;28;20104;-72
2021/12/05 07:53:48;;;;;;;2.90;1.15;;;;;;;;;;5035544;28;20060;-69
2021/12/05 07:56:25;;;;;;;2.75;1.23;;;;;;;;;;5035443;28;20178;-70
2021/12/05 07:59:09;;;;;;;1.55;0.95;;;;;;;;;;5039907;28;20122;-69
2021/12/05 08:15:24;;;;;;;1.73;1.00;;;;;;;;;;5048501;28;20048;-71
2021/12/05 08:17:53;;;;;;;3.20;1.10;;;;;;;;;;5047384;28;20053;-71
2021/12/05 08:20:23;;;;;;;3.55;1.10;;;;;;;;;;5046111;28;20053;-72
2021/12/05 08:22:49;;;;;;;2.95;1.60;;;;;;;;;;5046594;28;20497;-69
2021/12/05 08:25:16;;;;;;;3.28;1.20;;;;;;;;;;5051655;28;20050;-70
2021/12/05 08:27:49;;;;;;;4.28;1.13;;;;;;;;;;5055048;28;20048;-71
2021/12/05 08:30:26;;;;;;;2.92;1.05;;;;;;;;;;5051400;28;20374;-69
2021/12/05 08:46:18;;;;;;;4.18;0.90;;;;;;;;;;5050617;28;20055;-69
2021/12/05 09:08:51;;;;;;;4.97;1.65;;;;;;;;;;5051868;28;20639;-71
2021/12/05 10:10:49;;;;;;;6.45;0.90;;;;;;;;;;4946914;28;20066;-73
2021/12/05 10:37:30;;;;;;;2.10;0.80;;;;;;;;;;5046736;28;20052;-73
2021/12/05 10:40:10;;;;;;;4.22;0.90;;;;;;;;;;5046688;28;20059;-73
2021/12/05 10:42:49;;;;;;;3.67;0.80;;;;;;;;;;5043513;28;20071;-72
2021/12/05 10:45:21;;;;;;;3.53;0.70;;;;;;;;;;5047241;28;20052;-71
2021/12/05 10:47:51;;;;;;;11.25;1.10;;;;;;;;;;5044696;28;20093;-72
2021/12/05 10:50:51;;;;;;;2.58;0.70;;;;;;;;;;5042794;28;20517;-71
2021/12/05 10:53:29;;;;;;;1.80;0.60;;;;;;;;;;5039548;28;20056;-72
2021/12/05 10:56:04;;;;;;;6.68;0.75;;;;;;;;;;5046095;28;20047;-70
2021/12/05 10:58:53;;;;;;;4.53;0.98;;;;;;;;;;5026250;28;20064;-70
2021/12/05 11:01:40;;;;;;;3.38;1.02;;;;;;;;;;5028111;28;20410;-72
2021/12/05 11:04:09;;;;;;;4.82;1.13;;;;;;;;;;5045938;28;20120;-72
2021/12/05 11:06:50;;;;;;;5.57;1.02;;;;;;;;;;5022160;28;20099;-70
2021/12/05 11:09:34;;;;;;;2.70;0.90;;;;;;;;;;5046127;28;20056;-71
2021/12/05 11:12:12;;;;;;;2.10;0.85;;;;;;;;;;5043683;28;20139;-69
2021/12/05 11:14:43;;;;;;;5.40;1.10;;;;;;;;;;5038196;28;20513;-71
2021/12/05 11:17:13;;;;;;;5.00;0.85;;;;;;;;;;5042230;28;20052;-69
2021/12/05 11:19:44;;;;;;;4.25;1.00;;;;;;;;;;5044092;28;20055;-70
2021/12/05 11:22:21;;;;;;;2.15;0.80;;;;;;;;;;5037598;28;20505;-69
2021/12/05 11:24:57;;;;;;;4.28;1.10;;;;;;;;;;5024936;28;20048;-71
2021/12/05 11:27:34;;;;;;;2.63;0.70;;;;;;;;;;5042612;28;20072;-67
2021/12/05 11:30:03;;;;;;;3.22;0.77;;;;;;;;;;5046133;28;20053;-68
2021/12/05 11:32:46;;;;;;;4.38;0.85;;;;;;;;;;5037413;28;20052;-71
2021/12/05 11:35:12;;;;;;;3.00;1.35;;;;;;;;;;5041732;28;20977;-71
2021/12/05 11:37:55;;;;;;;4.40;1.88;;;;;;;;;;5037616;28;20056;-69
2021/12/05 11:40:24;;;;;;;7.38;0.90;;;;;;;;;;5041250;28;20144;-67
2021/12/05 11:42:52;;;;;;;5.65;1.10;;;;;;;;;;5039892;28;20517;-71
2021/12/05 11:45:18;;;;;;;4.70;1.10;;;;;;;;;;5013273;28;20151;-70
2021/12/05 11:47:44;;;;;;;11.05;1.15;;;;;;;;;;5038543;28;20052;-70
2021/12/05 11:50:10;;;;;;;4.50;1.08;;;;;;;;;;5039690;28;20583;-71
2021/12/05 11:52:40;;;;;;;4.97;0.80;;;;;;;;;;5042795;28;20999;-70
2021/12/05 11:55:23;;;;;;;3.38;1.17;;;;;;;;;;5047114;28;20472;-70
2021/12/05 11:57:50;;;;;;;3.22;1.00;;;;;;;;;;5047859;28;20608;-70
2021/12/05 12:00:19;;;;;;;10.83;1.00;;;;;;;;;;5028361;28;21291;-72
2021/12/05 12:02:47;;;;;;;1.80;0.73;;;;;;;;;;5045106;28;20135;-73
2021/12/05 12:05:19;;;;;;;1.17;0.77;;;;;;;;;;5052622;28;20460;-73
2021/12/05 12:07:47;;;;;;;4.25;1.08;;;;;;;;;;5050147;28;20141;-72
2021/12/05 12:10:27;;;;;;;2.67;0.82;;;;;;;;;;5052493;28;20091;-74
2021/12/05 12:12:58;;;;;;;4.20;0.77;;;;;;;;;;5047222;28;20040;-73
2021/12/05 12:15:26;;;;;;;4.18;0.68;;;;;;;;;;5033471;28;20422;-74
2021/12/05 12:17:57;;;;;;;9.93;1.15;;;;;;;;;;5044973;28;20055;-74
2021/12/05 12:20:26;;;;;;;5.47;1.17;;;;;;;;;;5048151;28;20238;-69
2021/12/05 12:22:55;;;;;;;3.60;0.82;;;;;;;;;;5045235;28;20396;-71
2021/12/05 12:25:27;;;;;;;6.63;1.10;;;;;;;;;;5048250;28;20642;-70
2021/12/05 12:27:53;;;;;;;6.13;0.80;;;;;;;;;;5042453;28;20060;-72
2021/12/05 12:30:29;;;;;;;6.10;0.80;;;;;;;;;;5053273;28;20462;-70
2021/12/05 12:33:03;;;;;;;2.55;1.10;;;;;;;;;;5044220;28;20171;-76
2021/12/05 12:35:32;;;;;;;5.95;1.00;;;;;;;;;;5051302;28;20131;-71
2021/12/05 12:38:30;;;;;;;10.00;0.90;;;;;;;;;;5052403;28;20052;-69
2021/12/05 12:41:23;;;;;;;5.05;1.15;;;;;;;;;;5040023;28;20090;-67
2021/12/05 12:43:56;;;;;;;3.28;1.00;;;;;;;;;;5055222;28;20071;-73
2021/12/05 12:46:41;;;;;;;4.47;0.90;;;;;;;;;;5040690;28;20059;-68
2021/12/05 12:49:16;;;;;;;5.18;0.95;;;;;;;;;;5045870;28;20599;-71
2021/12/05 12:51:45;;;;;;;7.60;0.95;;;;;;;;;;5028574;28;20064;-73
2021/12/05 12:54:18;;;;;;;5.13;1.02;;;;;;;;;;5028730;28;20095;-76
2021/12/05 12:57:12;;;;;;;5.03;1.10;;;;;;;;;;5053229;28;20045;-75
2021/12/05 12:59:41;;;;;;;4.07;1.33;;;;;;;;;;5054945;28;21825;-72
2021/12/05 13:10:25;;;;;;;1.98;0.80;;;;;;;;;;5050912;28;20048;-69
2021/12/05 13:12:59;;;;;;;2.28;0.70;;;;;;;;;;5028339;28;20113;-71
2021/12/05 13:15:36;;;;;;;1.48;0.85;;;;;;;;;;5050074;28;20071;-70
2021/12/05 13:18:23;;;;;;;1.80;1.17;;;;;;;;;;5048702;28;20052;-72
2021/12/05 13:20:54;;;;;;;2.72;1.20;;;;;;;;;;5052287;28;20041;-72
2021/12/05 13:23:20;;;;;;;3.75;1.30;;;;;;;;;;5048049;28;20494;-70
2021/12/05 13:26:08;;;;;;;5.88;1.08;;;;;;;;;;5062714;28;20045;-71
2021/12/05 13:28:36;;;;;;;4.43;1.67;;;;;;;;;;5059017;28;20205;-73
2021/12/05 13:31:27;;;;;;;3.63;1.30;;;;;;;;;;5052666;28;20044;-72
2021/12/05 13:34:16;;;;;;;2.85;1.10;;;;;;;;;;5052917;28;20048;-71
2021/12/05 13:36:57;;;;;;;2.22;1.20;;;;;;;;;;5055024;28;20139;-71
2021/12/05 13:39:38;;;;;;;5.70;1.40;;;;;;;;;;5043145;28;20202;-72
2021/12/05 13:42:16;;;;;;;5.03;1.40;;;;;;;;;;5027538;28;20075;-73
2021/12/05 13:45:06;;;;;;;4.30;1.27;;;;;;;;;;5057622;28;20044;-74
2021/12/05 13:47:42;;;;;;;4.03;1.42;;;;;;;;;;5052943;28;20354;-73
2021/12/05 13:50:22;;;;;;;2.42;0.95;;;;;;;;;;5052709;28;20056;-72
2021/12/05 13:52:53;;;;;;;4.63;1.10;;;;;;;;;;5054538;28;20603;-75
2021/12/05 13:55:40;;;;;;;5.80;1.23;;;;;;;;;;5051931;28;20105;-72
2021/12/05 13:58:21;;;;;;;6.00;1.00;;;;;;;;;;5055153;28;20152;-73
2021/12/05 14:00:59;;;;;;;3.63;0.80;;;;;;;;;;5057533;28;20056;-72
2021/12/05 14:03:53;;;;;;;5.50;1.20;;;;;;;;;;5044659;28;20052;-72
2021/12/05 14:06:34;;;;;;;2.97;1.20;;;;;;;;;;5057173;28;20124;-74
2021/12/05 14:09:03;;;;;;;2.38;0.90;;;;;;;;;;5054420;28;20305;-70
2021/12/05 14:11:29;;;;;;;4.90;1.23;;;;;;;;;;5060196;28;20064;-71
2021/12/05 14:13:56;;;;;;;2.15;0.90;;;;;;;;;;5048796;28;20052;-71
2021/12/05 14:16:30;;;;;;;0.70;0.52;;;;;;;;;;5046241;28;20052;-70
2021/12/05 14:18:57;;;;;;;1.10;0.60;;;;;;;;;;5047825;28;20086;-70
2021/12/05 14:21:25;;;;;;;2.63;0.75;;;;;;;;;;5047197;28;20056;-72
2021/12/05 14:23:54;;;;;;;3.80;1.00;;;;;;;;;;5049607;28;20114;-68
2021/12/05 14:26:25;;;;;;;1.67;0.90;;;;;;;;;;5045059;28;20692;-69
2021/12/05 14:29:13;;;;;;;3.58;1.52;;;;;;;;;;5047788;28;20107;-70
2021/12/05 14:31:52;;;;;;;1.48;0.80;;;;;;;;;;5047612;28;20051;-71
2021/12/05 14:34:18;;;;;;;2.97;1.10;;;;;;;;;;5049624;28;20060;-71
2021/12/05 14:36:50;;;;;;;1.77;1.05;;;;;;;;;;5054192;28;20166;-70
2021/12/05 14:39:28;;;;;;;3.03;1.48;;;;;;;;;;5055012;28;20777;-71
2021/12/05 14:41:59;;;;;;;3.40;1.15;;;;;;;;;;5040696;28;20063;-69
2021/12/05 14:44:25;;;;;;;2.22;1.02;;;;;;;;;;5059629;28;20155;-70
2021/12/05 14:46:56;;;;;;;1.98;0.85;;;;;;;;;;5054748;28;20048;-70
2021/12/05 14:49:28;;;;;;;1.90;1.00;;;;;;;;;;5050219;28;20081;-68
2021/12/05 14:51:55;;;;;;;2.53;1.00;;;;;;;;;;5047684;28;20052;-70
2021/12/05 14:54:26;;;;;;;3.42;1.35;;;;;;;;;;5055149;28;20345;-67
2021/12/05 14:56:53;;;;;;;3.00;1.23;;;;;;;;;;5052854;28;20052;-73
2021/12/05 14:59:20;;;;;;;5.50;2.88;;;;;;;;;;5048941;28;20147;-71
2021/12/05 15:01:52;;;;;;;2.65;1.00;;;;;;;;;;5045005;28;20659;-70
2021/12/05 15:04:22;;;;;;;1.70;0.80;;;;;;;;;;5051583;28;20036;-69
2021/12/05 15:06:49;;;;;;;2.38;1.00;;;;;;;;;;5055361;28;20143;-70
2021/12/05 15:09:37;;;;;;;1.50;0.88;;;;;;;;;;5049849;28;20035;-72
2021/12/05 15:12:18;;;;;;;1.67;0.80;;;;;;;;;;5042316;28;20593;-69
2021/12/05 15:14:52;;;;;;;6.78;1.13;;;;;;;;;;5033752;28;20056;-71
2021/12/05 15:17:24;;;;;;;2.83;0.80;;;;;;;;;;5053443;28;20052;-71
2021/12/05 15:19:53;;;;;;;1.92;0.70;;;;;;;;;;5050767;28;20052;-74
2021/12/05 15:22:19;;;;;;;1.35;0.70;;;;;;;;;;5048998;28;20048;-75
2021/12/05 15:24:52;;;;;;;1.55;0.70;;;;;;;;;;5058981;28;20357;-72
2021/12/05 15:27:20;;;;;;;2.15;1.13;;;;;;;;;;5033991;28;20572;-71
2021/12/05 15:29:59;;;;;;;0.82;0.50;;;;;;;;;;5050638;28;20106;-70
2021/12/05 15:32:28;;;;;;;2.00;0.80;;;;;;;;;;5045792;28;20461;-70
2021/12/05 15:34:58;;;;;;;0.55;0.47;;;;;;;;;;5054006;28;20520;-71
2021/12/05 15:37:24;;;;;;;1.63;0.68;;;;;;;;;;5047109;28;20407;-69
2021/12/05 15:39:53;;;;;;;1.52;0.80;;;;;;;;;;5050614;28;20326;-73
2021/12/05 15:42:27;;;;;;;2.70;0.93;;;;;;;;;;5046564;28;20047;-74
2021/12/05 15:44:56;;;;;;;3.35;0.90;;;;;;;;;;5050537;28;20060;-70
2021/12/05 15:47:25;;;;;;;0.85;0.70;;;;;;;;;;5049121;28;20825;-69
2021/12/05 15:50:03;;;;;;;2.40;1.00;;;;;;;;;;5035867;28;20040;-71
2021/12/05 15:52:34;;;;;;;2.28;1.20;;;;;;;;;;5047039;28;20410;-70
2021/12/05 15:55:03;;;;;;;2.35;1.00;;;;;;;;;;5050250;28;20491;-69
2021/12/05 15:57:36;;;;;;;1.00;0.80;;;;;;;;;;5030978;28;20529;-70
2021/12/05 16:00:24;;;;;;;2.17;0.98;;;;;;;;;;5050553;28;20561;-71
2021/12/05 16:03:09;;;;;;;2.95;0.93;;;;;;;;;;5045387;28;20374;-74
2021/12/05 16:05:38;;;;;;;1.15;0.80;;;;;;;;;;5039753;28;20995;-72
2021/12/05 16:08:08;;;;;;;1.35;0.50;;;;;;;;;;5037780;28;20136;-71
2021/12/05 16:10:38;;;;;;;1.05;0.70;;;;;;;;;;5034677;28;20052;-72
2021/12/05 16:13:14;;;;;;;0.80;0.50;;;;;;;;;;5047375;28;20057;-69
2021/12/05 16:15:42;;;;;;;1.58;0.80;;;;;;;;;;5048505;28;20555;-73
2021/12/05 16:18:09;;;;;;;1.35;0.80;;;;;;;;;;5051180;28;20064;-73
2021/12/05 16:20:50;;;;;;;1.10;0.70;;;;;;;;;;5047793;28;20071;-70
2021/12/05 16:23:24;;;;;;;1.35;0.70;;;;;;;;;;5046509;28;20124;-72
2021/12/05 16:26:10;;;;;;;1.38;0.70;;;;;;;;;;5047431;28;20158;-70
2021/12/05 16:28:46;;;;;;;2.53;1.10;;;;;;;;;;5051016;28;20064;-71
2021/12/05 16:31:18;;;;;;;1.67;0.70;;;;;;;;;;5042467;28;20052;-73
2021/12/05 16:33:50;;;;;;;0.55;0.40;;;;;;;;;;5031350;28;20437;-72
2021/12/05 16:36:18;;;;;;;1.38;0.68;;;;;;;;;;5028149;28;20061;-75
2021/12/05 16:38:50;;;;;;;1.55;0.70;;;;;;;;;;5044269;28;20049;-74
2021/12/05 16:41:33;;;;;;;1.45;0.70;;;;;;;;;;5044639;28;20056;-71
2021/12/05 16:44:13;;;;;;;2.10;0.75;;;;;;;;;;5049008;28;20063;-74
2021/12/05 16:46:41;;;;;;;1.27;0.70;;;;;;;;;;5049842;28;21272;-74
2021/12/05 16:49:14;;;;;;;1.10;0.70;;;;;;;;;;5053216;28;20599;-73
2021/12/05 16:51:58;;;;;;;0.68;0.60;;;;;;;;;;5045867;28;20049;-73
2021/12/05 16:54:42;;;;;;;3.63;0.90;;;;;;;;;;5047254;28;20052;-72
2021/12/05 16:57:12;;;;;;;1.75;0.93;;;;;;;;;;5046557;28;20587;-74
2021/12/05 16:59:41;;;;;;;3.40;0.80;;;;;;;;;;5049366;28;20783;-74
2021/12/05 17:02:18;;;;;;;1.50;0.95;;;;;;;;;;5046678;28;20140;-71
2021/12/05 17:04:56;;;;;;;1.15;0.90;;;;;;;;;;5050494;28;20470;-73
2021/12/05 17:07:43;;;;;;;1.90;0.90;;;;;;;;;;5035945;28;20293;-72
2021/12/05 17:10:35;;;;;;;1.50;1.00;;;;;;;;;;5042743;28;20278;-74
2021/12/05 17:13:08;;;;;;;1.70;1.00;;;;;;;;;;5046417;28;20053;-71
2021/12/05 17:15:36;;;;;;;2.03;1.30;;;;;;;;;;5050244;28;21822;-70
2021/12/05 17:18:12;;;;;;;2.30;0.80;;;;;;;;;;5049152;28;20159;-72
2021/12/05 17:20:45;;;;;;;1.50;0.98;;;;;;;;;;5050523;28;20048;-75
2021/12/05 17:23:19;;;;;;;2.35;1.10;;;;;;;;;;5048812;28;20044;-71
2021/12/05 17:25:49;;;;;;;2.53;1.63;;;;;;;;;;5049088;28;20052;-74
2021/12/05 17:28:38;;;;;;;2.63;1.20;;;;;;;;;;5051914;28;20052;-75
2021/12/05 17:31:08;;;;;;;1.33;0.80;;;;;;;;;;5052254;28;20083;-71
2021/12/05 17:33:46;;;;;;;2.85;1.10;;;;;;;;;;5044612;28;21074;-73
2021/12/05 17:36:20;;;;;;;1.33;0.95;;;;;;;;;;5050853;28;20097;-72
2021/12/05 17:38:49;;;;;;;1.65;0.90;;;;;;;;;;5051084;28;20386;-72
2021/12/05 17:41:17;;;;;;;1.92;1.10;;;;;;;;;;5052041;28;20168;-73
2021/12/05 17:43:43;;;;;;;1.42;0.90;;;;;;;;;;5048058;28;20044;-75
2021/12/05 17:46:09;;;;;;;2.03;0.70;;;;;;;;;;5047981;28;20059;-76
2021/12/05 17:48:36;;;;;;;1.60;0.90;;;;;;;;;;5052016;28;20751;-76
2021/12/05 17:51:05;;;;;;;1.15;0.90;;;;;;;;;;5043901;28;20476;-74
2021/12/05 17:53:35;;;;;;;3.30;1.20;;;;;;;;;;5049382;28;20053;-72
2021/12/05 17:56:12;;;;;;;1.38;0.98;;;;;;;;;;5048242;28;21119;-74
2021/12/05 18:03:57;;;;;;;1.08;0.80;;;;;;;;;;5044045;28;20063;-74
2021/12/05 18:06:24;;;;;;;2.03;0.80;;;;;;;;;;5043204;28;20158;-70
2021/12/05 18:08:50;;;;;;;2.35;1.00;;;;;;;;;;5049336;28;20059;-76
2021/12/05 18:11:23;;;;;;;1.95;0.80;;;;;;;;;;5050745;28;20101;-72
2021/12/05 18:13:55;;;;;;;1.33;0.85;;;;;;;;;;5048253;28;20055;-73
2021/12/05 18:16:25;;;;;;;1.77;0.80;;;;;;;;;;5046035;28;21021;-72
2021/12/05 18:18:57;;;;;;;2.97;1.20;;;;;;;;;;5047776;28;20052;-71
2021/12/05 18:21:26;;;;;;;2.40;1.42;;;;;;;;;;5043132;28;20540;-75
2021/12/05 18:23:54;;;;;;;1.63;0.93;;;;;;;;;;5044452;28;20568;-71
2021/12/05 18:26:21;;;;;;;2.70;1.40;;;;;;;;;;5045384;28;20067;-72
2021/12/05 18:28:49;;;;;;;2.35;1.20;;;;;;;;;;5048943;28;20509;-76
2021/12/05 18:31:23;;;;;;;3.20;1.40;;;;;;;;;;5048534;28;20056;-75
2021/12/05 18:34:01;;;;;;;1.73;1.02;;;;;;;;;;5047720;28;20052;-76
2021/12/05 18:36:30;;;;;;;2.00;1.10;;;;;;;;;;5052249;28;20602;-74
2021/12/05 18:38:58;;;;;;;4.57;1.10;;;;;;;;;;5052805;28;20439;-73
2021/12/05 18:41:26;;;;;;;2.83;1.10;;;;;;;;;;5044679;28;20758;-73
2021/12/05 18:43:53;;;;;;;3.00;1.10;;;;;;;;;;5045850;28;20071;-72
2021/12/05 18:46:19;;;;;;;4.25;1.10;;;;;;;;;;5046538;28;20113;-77
2021/12/05 18:48:46;;;;;;;2.38;1.00;;;;;;;;;;5045769;28;20494;-70
2021/12/05 18:51:14;;;;;;;2.13;1.15;;;;;;;;;;5031350;28;20121;-70
2021/12/05 18:53:41;;;;;;;2.53;1.10;;;;;;;;;;5044744;28;20174;-70
2021/12/05 18:56:08;;;;;;;2.67;1.20;;;;;;;;;;5030138;28;20808;-68
2021/12/05 18:58:41;;;;;;;2.63;1.48;;;;;;;;;;5046196;28;20052;-68
2021/12/05 19:06:45;;;;;;;1.98;1.10;;;;;;;;;;5044487;28;20053;-71
2021/12/05 19:09:23;;;;;;;1.88;1.10;;;;;;;;;;5046778;28;20499;-71
2021/12/05 19:11:55;;;;;;;2.67;1.00;;;;;;;;;;5026274;28;20107;-69
2021/12/05 19:14:31;;;;;;;1.70;0.93;;;;;;;;;;5042227;28;21808;-69
2021/12/05 19:17:08;;;;;;;8.00;1.40;;;;;;;;;;5046092;28;20713;-70
2021/12/05 19:19:39;;;;;;;1.75;1.10;;;;;;;;;;5045474;28;20052;-69
2021/12/05 19:22:05;;;;;;;1.67;1.02;;;;;;;;;;5024584;28;20060;-69
2021/12/05 19:24:31;;;;;;;1.55;1.05;;;;;;;;;;5045377;28;20050;-71
2021/12/05 19:26:59;;;;;;;1.95;1.10;;;;;;;;;;5043560;28;20568;-68
2021/12/05 19:29:26;;;;;;;5.50;1.60;;;;;;;;;;5048216;28;20528;-71
2021/12/05 19:31:54;;;;;;;2.97;1.50;;;;;;;;;;5042368;28;20048;-68
2021/12/05 19:34:20;;;;;;;2.00;1.33;;;;;;;;;;5026111;28;20101;-70
2021/12/05 19:36:47;;;;;;;2.17;1.27;;;;;;;;;;5047047;28;20567;-71
2021/12/05 19:39:14;;;;;;;3.85;1.40;;;;;;;;;;5046883;28;20129;-73
2021/12/05 19:41:40;;;;;;;4.30;1.70;;;;;;;;;;5041948;28;20387;-72
2021/12/05 19:44:07;;;;;;;4.22;1.65;;;;;;;;;;5031732;28;20148;-74
2021/12/05 19:46:37;;;;;;;2.55;1.30;;;;;;;;;;5045686;28;21556;-69
2021/12/05 19:49:06;;;;;;;4.97;1.70;;;;;;;;;;5044708;28;20056;-71
2021/12/05 19:51:33;;;;;;;4.15;1.55;;;;;;;;;;5044758;28;20145;-69
2021/12/05 19:53:59;;;;;;;2.90;1.50;;;;;;;;;;5045995;28;20055;-72
2021/12/05 19:56:27;;;;;;;2.55;1.55;;;;;;;;;;5041755;28;20056;-69
2021/12/05 19:58:54;;;;;;;3.10;1.67;;;;;;;;;;5046727;28;21037;-68
2021/12/05 20:01:22;;;;;;;2.90;1.77;;;;;;;;;;5040013;28;20056;-69
2021/12/05 20:03:49;;;;;;;5.47;1.95;;;;;;;;;;5043082;28;20487;-73
2021/12/05 20:06:16;;;;;;;4.68;2.45;;;;;;;;;;5043220;28;20048;-71
2021/12/05 20:08:46;;;;;;;4.88;2.55;;;;;;;;;;5051017;28;20076;-68
2021/12/05 20:11:13;;;;;;;5.88;2.50;;;;;;;;;;5049768;28;20044;-68
2021/12/05 20:13:40;;;;;;;6.88;2.42;;;;;;;;;;5039120;28;20312;-72
2021/12/05 20:16:08;;;;;;;8.40;3.20;;;;;;;;;;5043416;28;20070;-70
2021/12/05 20:18:36;;;;;;;5.72;3.03;;;;;;;;;;5046536;28;20243;-69
2021/12/05 20:21:06;;;;;;;6.88;2.78;;;;;;;;;;5051686;28;20513;-69
2021/12/05 20:23:34;;;;;;;7.40;3.72;;;;;;;;;;5046755;28;20053;-70
2021/12/05 20:26:01;;;;;;;6.95;3.13;;;;;;;;;;5045109;28;20472;-69
2021/12/05 20:28:29;;;;;;;7.45;3.20;;;;;;;;;;5054353;28;20094;-68
2021/12/05 20:30:55;;;;;;;6.38;3.40;;;;;;;;;;5048103;28;20055;-68
2021/12/05 20:33:22;;;;;;;6.45;3.08;;;;;;;;;;5031803;28;20896;-69
2021/12/05 20:35:48;;;;;;;9.48;3.85;;;;;;;;;;5050529;28;20048;-70
2021/12/05 20:38:14;;;;;;;7.03;3.63;;;;;;;;;;5053096;28;20052;-71
2021/12/05 20:40:44;;;;;;;6.85;3.20;;;;;;;;;;5052238;28;20098;-68
2021/12/05 20:43:12;;;;;;;7.30;3.13;;;;;;;;;;5029499;28;20894;-72
2021/12/05 20:45:40;;;;;;;4.93;2.55;;;;;;;;;;5052877;28;20535;-75
2021/12/05 20:48:07;;;;;;;4.93;2.22;;;;;;;;;;5055623;28;20061;-71
2021/12/05 20:50:35;;;;;;;6.95;2.80;;;;;;;;;;5056940;28;20390;-73
2021/12/05 20:53:02;;;;;;;5.25;2.47;;;;;;;;;;5058012;28;20056;-69